»·PEaware :: BLADE41 KSPS-KSPS

BLADE41 :: KSPS-KSPS

FLIGHT INFORMATION

Flight Status: Arrived
Operator: Unknown
More flights by this operator :: More flights under this callsign
Pilot: 80 FTW ENJJPT (22981)
Aircraft: BEECH AIRCRAFT T-6A TEXAN
(TEX2)
More flights by this aircraft type
Origin: KSPS Sheppard AFB/Wichita Falls Mu
United States
Destination: KSPS Sheppard AFB/Wichita Falls Mu
United States
More flights between these airports :: More routes between these airports
Route: +RANCH
File this flight plan on PilotEdge
Remarks:
Altitude:
(Current/Filed)
6,000ft
Speed:
(Current/Filed)
0kts
Departed: 28-Aug-20 10:53 AM
Arrived: 28-Aug-20 12:01 PM
Distance/Time
Traveled:
1nm/1:08
Distance/Time
To Go:
Arrived

Flight Plot

Page will automatically refresh every two minutes.

Flight plan parsing failed; only flown route is shown


Map Options




Map Legend


Flown Route
Filed Route
Departure Airport
Arrival Airport
Navaid (VOR, NDB)
Fix

Horizontal Profiles

Position Reports

Time Latitude Longitude Heading Altitude Ground
Speed
28-Aug-20 10:51 34.118945 -98.484043 329 5994ft 224kts
28-Aug-20 10:52 34.174381 -98.525033 331 5910ft 226kts
28-Aug-20 10:53 34.219148 -98.578298 301 5829ft 220kts
28-Aug-20 10:54 34.253399 -98.639943 314 6273ft 210kts
28-Aug-20 10:55 34.299704 -98.692337 317 5959ft 224kts
28-Aug-20 10:56 34.342250 -98.751137 311 5678ft 223kts
28-Aug-20 10:57 34.382755 -98.810302 308 5640ft 213kts
28-Aug-20 10:58 34.418055 -98.870182 311 5111ft 211kts
28-Aug-20 10:59 34.444835 -98.931842 264 2934ft 209kts
28-Aug-20 11:00 34.433465 -98.989346 179 1834ft 170kts
28-Aug-20 11:01 34.382789 -98.989311 179 2171ft 200kts
28-Aug-20 11:02 34.357280 -99.005857 358 2309ft 174kts
28-Aug-20 11:03 34.362312 -98.989344 180 1275ft 96kts
28-Aug-20 11:04 34.354181 -98.989560 179 1257ft 33kts
28-Aug-20 11:05 34.354181 -98.989560 179 1257ft 33kts
28-Aug-20 11:06 34.354181 -98.989560 179 1257ft 33kts
28-Aug-20 11:07 34.354181 -98.989560 179 1257ft 33kts
28-Aug-20 11:08 34.352064 -98.989342 180 1257ft 64kts
28-Aug-20 11:09 34.355140 -99.005931 0 2314ft 160kts
28-Aug-20 11:10 34.363425 -98.989517 175 1376ft 121kts
28-Aug-20 11:11 34.353434 -99.006630 354 2023ft 210kts
28-Aug-20 11:12 34.349982 -98.989363 181 2282ft 200kts
28-Aug-20 11:13 34.334885 -98.950356 63 2284ft 221kts
28-Aug-20 11:14 34.355457 -98.890107 69 5353ft 186kts
28-Aug-20 11:15 34.377092 -98.826372 71 5912ft 230kts
28-Aug-20 11:16 34.346206 -98.769302 68 4880ft 247kts
28-Aug-20 11:17 34.389918 -98.817667 303 3456ft 256kts
28-Aug-20 11:18 34.432412 -98.881872 295 2406ft 240kts
28-Aug-20 11:19 34.437959 -98.960340 290 2190ft 231kts
28-Aug-20 11:20 34.418662 -98.965020 89 4057ft 226kts
28-Aug-20 11:21 34.444710 -98.973476 275 1876ft 255kts
28-Aug-20 11:22 34.395245 -98.988835 181 2056ft 199kts
28-Aug-20 11:23 34.346715 -99.000020 279 2064ft 188kts
28-Aug-20 11:24 34.372272 -98.996688 115 1695ft 121kts
28-Aug-20 11:25 34.345987 -98.989439 176 1391ft 129kts
28-Aug-20 11:26 34.339873 -98.946369 82 3329ft 204kts
28-Aug-20 11:27 34.344729 -98.879926 85 6365ft 212kts
28-Aug-20 11:28 34.330287 -98.809282 112 5248ft 192kts
28-Aug-20 11:29 34.309253 -98.745295 111 4837ft 191kts
28-Aug-20 11:30 34.283769 -98.686977 123 4793ft 213kts
28-Aug-20 11:31 34.253238 -98.624508 122 3854ft 216kts
28-Aug-20 11:32 34.225497 -98.560406 115 3016ft 207kts
28-Aug-20 11:33 34.202810 -98.497038 115 2913ft 204kts
28-Aug-20 11:34 34.178849 -98.434888 116 3041ft 209kts
28-Aug-20 11:35 34.132418 -98.394897 155 2809ft 217kts
28-Aug-20 11:36 34.073680 -98.382565 186 1910ft 204kts
28-Aug-20 11:37 34.022431 -98.401197 221 2084ft 190kts
28-Aug-20 11:38 33.972407 -98.411744 139 2000ft 213kts
28-Aug-20 11:39 33.926144 -98.440007 220 1992ft 212kts
28-Aug-20 11:40 33.964741 -98.475270 354 2028ft 210kts
28-Aug-20 11:41 33.998535 -98.473934 151 1964ft 167kts
28-Aug-20 11:42 33.997032 -98.486470 338 1032ft 93kts
28-Aug-20 11:43 34.021426 -98.491142 80 1977ft 141kts
28-Aug-20 11:44 33.986866 -98.471995 226 1749ft 121kts
28-Aug-20 11:45 34.006334 -98.490903 335 1187ft 130kts
28-Aug-20 11:46 34.001255 -98.470860 157 1946ft 108kts
28-Aug-20 11:47 33.995479 -98.485724 339 1045ft 105kts
28-Aug-20 11:48 34.016268 -98.480930 161 1872ft 167kts
28-Aug-20 11:49 33.984573 -98.478466 283 1412ft 118kts
28-Aug-20 11:50 34.011282 -98.493416 335 1342ft 150kts
28-Aug-20 11:51 33.996752 -98.463700 161 2108ft 135kts
28-Aug-20 11:52 33.996058 -98.485908 339 1033ft 100kts
28-Aug-20 11:53 34.012225 -98.479973 155 2035ft 159kts
28-Aug-20 11:54 33.986258 -98.481471 336 1318ft 138kts
28-Aug-20 11:55 34.007309 -98.491259 335 1074ft 101kts
28-Aug-20 11:56 34.003597 -98.474210 154 1814ft 162kts
28-Aug-20 11:57 33.996559 -98.486189 338 1036ft 98kts
28-Aug-20 11:58 34.016363 -98.480497 156 2008ft 161kts
28-Aug-20 11:59 33.987418 -98.480140 302 1359ft 122kts
28-Aug-20 12:00 34.001064 -98.488612 339 1023ft 11kts
28-Aug-20 12:01 34.020697 -98.489318 102 1578ft 135kts
28-Aug-20 12:02 33.972219 -98.462500 162 2298ft 190kts
28-Aug-20 12:03 33.919258 -98.445749 169 1869ft 184kts
28-Aug-20 12:04 33.869675 -98.435245 170 2082ft 179kts
28-Aug-20 12:06 33.845202 -98.437300 337 1827ft 178kts
28-Aug-20 12:07 33.899228 -98.439194 7 2338ft 213kts
28-Aug-20 12:08 33.956209 -98.466880 339 2070ft 198kts
28-Aug-20 12:09 33.992885 -98.484436 337 1037ft 104kts
28-Aug-20 12:12 34.000316 -98.503939 345 1023ft 0kts
28-Aug-20 12:13 34.000316 -98.503939 345 1023ft 0kts
28-Aug-20 12:14 34.000316 -98.503939 345 1023ft 0kts
28-Aug-20 12:15 34.000316 -98.503939 345 1023ft 0kts
28-Aug-20 12:16 34.000316 -98.503939 345 1023ft 0kts

Navigation Log

Ident Type
Flight plan parsing failed, navigation log unavailable